sensor_id;sensor_type;location;lat;lon;timestamp;P1;durP1;ratioP1;P2;durP2;ratioP2
7729;SDS011;3908;52.310;7.230;2022-12-18T00:02:13;42.50;;;18.67;;
7729;SDS011;3908;52.310;7.230;2022-12-18T00:05:01;47.77;;;19.03;;
7729;SDS011;3908;52.310;7.230;2022-12-18T00:07:49;49.53;;;20.07;;
7729;SDS011;3908;52.310;7.230;2022-12-18T00:10:36;47.67;;;18.27;;
7729;SDS011;3908;52.310;7.230;2022-12-18T00:13:23;50.77;;;19.63;;
7729;SDS011;3908;52.310;7.230;2022-12-18T00:16:12;43.47;;;18.57;;
7729;SDS011;3908;52.310;7.230;2022-12-18T00:19:01;52.50;;;18.73;;
7729;SDS011;3908;52.310;7.230;2022-12-18T00:21:52;44.67;;;18.60;;
7729;SDS011;3908;52.310;7.230;2022-12-18T00:24:40;41.73;;;19.13;;
7729;SDS011;3908;52.310;7.230;2022-12-18T00:27:26;38.27;;;17.07;;
7729;SDS011;3908;52.310;7.230;2022-12-18T00:30:14;46.70;;;19.97;;
7729;SDS011;3908;52.310;7.230;2022-12-18T00:33:01;51.70;;;18.80;;
7729;SDS011;3908;52.310;7.230;2022-12-18T00:35:49;44.77;;;17.50;;
7729;SDS011;3908;52.310;7.230;2022-12-18T00:38:37;48.90;;;18.63;;
7729;SDS011;3908;52.310;7.230;2022-12-18T00:41:25;45.37;;;18.13;;
7729;SDS011;3908;52.310;7.230;2022-12-18T00:44:38;46.93;;;20.00;;
7729;SDS011;3908;52.310;7.230;2022-12-18T00:47:26;43.87;;;17.53;;
7729;SDS011;3908;52.310;7.230;2022-12-18T00:50:12;49.10;;;19.43;;
7729;SDS011;3908;52.310;7.230;2022-12-18T00:52:59;38.13;;;18.00;;
7729;SDS011;3908;52.310;7.230;2022-12-18T00:55:50;41.90;;;19.57;;
7729;SDS011;3908;52.310;7.230;2022-12-18T00:58:37;40.40;;;18.80;;
7729;SDS011;3908;52.310;7.230;2022-12-18T01:01:24;35.50;;;17.63;;
7729;SDS011;3908;52.310;7.230;2022-12-18T01:04:11;42.87;;;19.07;;
7729;SDS011;3908;52.310;7.230;2022-12-18T01:06:58;33.80;;;17.00;;
7729;SDS011;3908;52.310;7.230;2022-12-18T01:09:45;41.97;;;17.03;;
7729;SDS011;3908;52.310;7.230;2022-12-18T01:12:39;48.10;;;18.60;;
7729;SDS011;3908;52.310;7.230;2022-12-18T01:15:26;43.50;;;17.20;;
7729;SDS011;3908;52.310;7.230;2022-12-18T01:18:13;43.00;;;18.80;;
7729;SDS011;3908;52.310;7.230;2022-12-18T01:21:00;38.40;;;18.00;;
7729;SDS011;3908;52.310;7.230;2022-12-18T01:23:50;33.77;;;15.80;;
7729;SDS011;3908;52.310;7.230;2022-12-18T01:26:38;44.33;;;17.93;;
7729;SDS011;3908;52.310;7.230;2022-12-18T01:29:26;35.73;;;16.93;;
7729;SDS011;3908;52.310;7.230;2022-12-18T01:32:14;42.10;;;17.50;;
7729;SDS011;3908;52.310;7.230;2022-12-18T01:35:01;41.90;;;18.23;;
7729;SDS011;3908;52.310;7.230;2022-12-18T01:37:49;49.87;;;18.00;;
7729;SDS011;3908;52.310;7.230;2022-12-18T01:40:40;35.90;;;18.07;;
7729;SDS011;3908;52.310;7.230;2022-12-18T01:43:43;37.13;;;18.23;;
7729;SDS011;3908;52.310;7.230;2022-12-18T01:46:33;40.13;;;17.57;;
7729;SDS011;3908;52.310;7.230;2022-12-18T01:49:21;35.40;;;16.70;;
7729;SDS011;3908;52.310;7.230;2022-12-18T01:52:09;40.93;;;18.63;;
7729;SDS011;3908;52.310;7.230;2022-12-18T01:54:56;31.73;;;16.17;;
7729;SDS011;3908;52.310;7.230;2022-12-18T01:57:43;37.40;;;15.20;;
7729;SDS011;3908;52.310;7.230;2022-12-18T02:00:31;37.43;;;17.07;;
7729;SDS011;3908;52.310;7.230;2022-12-18T02:03:21;35.33;;;17.73;;
7729;SDS011;3908;52.310;7.230;2022-12-18T02:06:10;36.80;;;17.43;;
7729;SDS011;3908;52.310;7.230;2022-12-18T02:09:04;33.53;;;16.77;;
7729;SDS011;3908;52.310;7.230;2022-12-18T02:11:59;42.63;;;17.77;;
7729;SDS011;3908;52.310;7.230;2022-12-18T02:14:54;35.27;;;17.70;;
7729;SDS011;3908;52.310;7.230;2022-12-18T02:17:48;31.37;;;16.30;;
7729;SDS011;3908;52.310;7.230;2022-12-18T02:20:43;35.83;;;17.23;;
7729;SDS011;3908;52.310;7.230;2022-12-18T02:23:44;31.10;;;17.07;;
7729;SDS011;3908;52.310;7.230;2022-12-18T02:26:37;39.20;;;17.00;;
7729;SDS011;3908;52.310;7.230;2022-12-18T02:29:28;33.07;;;16.07;;
7729;SDS011;3908;52.310;7.230;2022-12-18T02:32:22;41.13;;;16.70;;
7729;SDS011;3908;52.310;7.230;2022-12-18T02:35:13;37.57;;;16.60;;
7729;SDS011;3908;52.310;7.230;2022-12-18T02:38:03;34.57;;;16.57;;
7729;SDS011;3908;52.310;7.230;2022-12-18T02:40:51;43.83;;;18.33;;
7729;SDS011;3908;52.310;7.230;2022-12-18T02:43:42;37.23;;;17.17;;
7729;SDS011;3908;52.310;7.230;2022-12-18T02:46:36;32.27;;;16.40;;
7729;SDS011;3908;52.310;7.230;2022-12-18T02:49:28;34.10;;;15.80;;
7729;SDS011;3908;52.310;7.230;2022-12-18T02:52:25;36.40;;;15.70;;
7729;SDS011;3908;52.310;7.230;2022-12-18T02:55:20;32.63;;;16.20;;
7729;SDS011;3908;52.310;7.230;2022-12-18T02:58:16;31.23;;;16.57;;
7729;SDS011;3908;52.310;7.230;2022-12-18T03:01:09;33.40;;;16.97;;
7729;SDS011;3908;52.310;7.230;2022-12-18T03:04:02;33.30;;;15.67;;
7729;SDS011;3908;52.310;7.230;2022-12-18T03:06:54;31.13;;;15.97;;
7729;SDS011;3908;52.310;7.230;2022-12-18T03:09:44;32.43;;;16.20;;
7729;SDS011;3908;52.310;7.230;2022-12-18T03:12:36;34.30;;;17.60;;
7729;SDS011;3908;52.310;7.230;2022-12-18T03:15:29;33.77;;;17.17;;
7729;SDS011;3908;52.310;7.230;2022-12-18T03:18:23;33.67;;;16.40;;
7729;SDS011;3908;52.310;7.230;2022-12-18T03:21:17;37.83;;;17.60;;
7729;SDS011;3908;52.310;7.230;2022-12-18T03:24:16;32.43;;;15.73;;
7729;SDS011;3908;52.310;7.230;2022-12-18T03:27:06;36.20;;;17.07;;
7729;SDS011;3908;52.310;7.230;2022-12-18T03:30:00;34.67;;;15.93;;
7729;SDS011;3908;52.310;7.230;2022-12-18T03:32:53;29.37;;;15.93;;
7729;SDS011;3908;52.310;7.230;2022-12-18T03:35:48;27.40;;;14.47;;
7729;SDS011;3908;52.310;7.230;2022-12-18T03:38:36;32.80;;;15.40;;
7729;SDS011;3908;52.310;7.230;2022-12-18T03:41:24;34.20;;;16.50;;
7729;SDS011;3908;52.310;7.230;2022-12-18T03:44:19;34.43;;;16.63;;
7729;SDS011;3908;52.310;7.230;2022-12-18T03:47:13;34.07;;;16.57;;
7729;SDS011;3908;52.310;7.230;2022-12-18T03:50:04;38.07;;;16.90;;
7729;SDS011;3908;52.310;7.230;2022-12-18T03:53:00;40.73;;;15.63;;
7729;SDS011;3908;52.310;7.230;2022-12-18T03:55:55;34.63;;;16.63;;
7729;SDS011;3908;52.310;7.230;2022-12-18T03:58:44;40.10;;;17.00;;
7729;SDS011;3908;52.310;7.230;2022-12-18T04:01:35;34.63;;;16.00;;
7729;SDS011;3908;52.310;7.230;2022-12-18T04:04:26;32.23;;;15.87;;
7729;SDS011;3908;52.310;7.230;2022-12-18T04:07:15;29.13;;;15.80;;
7729;SDS011;3908;52.310;7.230;2022-12-18T04:10:05;32.57;;;15.43;;
7729;SDS011;3908;52.310;7.230;2022-12-18T04:12:59;38.63;;;17.33;;
7729;SDS011;3908;52.310;7.230;2022-12-18T04:15:47;28.40;;;14.17;;
7729;SDS011;3908;52.310;7.230;2022-12-18T04:18:34;30.73;;;16.57;;
7729;SDS011;3908;52.310;7.230;2022-12-18T04:21:22;33.73;;;15.00;;
7729;SDS011;3908;52.310;7.230;2022-12-18T04:24:09;31.97;;;15.53;;
7729;SDS011;3908;52.310;7.230;2022-12-18T04:26:57;36.37;;;16.07;;
7729;SDS011;3908;52.310;7.230;2022-12-18T04:29:45;32.37;;;15.00;;
7729;SDS011;3908;52.310;7.230;2022-12-18T04:32:33;32.47;;;16.30;;
7729;SDS011;3908;52.310;7.230;2022-12-18T04:35:20;42.90;;;17.47;;
7729;SDS011;3908;52.310;7.230;2022-12-18T04:38:08;34.13;;;16.23;;
7729;SDS011;3908;52.310;7.230;2022-12-18T04:40:56;31.57;;;15.53;;
7729;SDS011;3908;52.310;7.230;2022-12-18T04:43:44;29.40;;;14.67;;
7729;SDS011;3908;52.310;7.230;2022-12-18T04:46:32;36.33;;;16.60;;
7729;SDS011;3908;52.310;7.230;2022-12-18T04:49:19;35.57;;;15.20;;
7729;SDS011;3908;52.310;7.230;2022-12-18T04:52:06;28.90;;;15.47;;
7729;SDS011;3908;52.310;7.230;2022-12-18T04:54:56;31.30;;;14.57;;
7729;SDS011;3908;52.310;7.230;2022-12-18T04:57:43;32.90;;;15.80;;
7729;SDS011;3908;52.310;7.230;2022-12-18T05:00:32;34.33;;;15.87;;
7729;SDS011;3908;52.310;7.230;2022-12-18T05:03:20;26.90;;;14.63;;
7729;SDS011;3908;52.310;7.230;2022-12-18T05:06:07;29.30;;;14.17;;
7729;SDS011;3908;52.310;7.230;2022-12-18T05:08:54;28.93;;;15.10;;
7729;SDS011;3908;52.310;7.230;2022-12-18T05:11:44;27.87;;;13.70;;
7729;SDS011;3908;52.310;7.230;2022-12-18T05:14:32;30.50;;;15.67;;
7729;SDS011;3908;52.310;7.230;2022-12-18T05:17:20;33.37;;;16.00;;
7729;SDS011;3908;52.310;7.230;2022-12-18T05:20:08;31.03;;;15.20;;
7729;SDS011;3908;52.310;7.230;2022-12-18T05:22:55;30.33;;;14.83;;
7729;SDS011;3908;52.310;7.230;2022-12-18T05:25:46;28.87;;;14.57;;
7729;SDS011;3908;52.310;7.230;2022-12-18T05:28:36;36.90;;;15.73;;
7729;SDS011;3908;52.310;7.230;2022-12-18T05:31:23;35.30;;;15.07;;
7729;SDS011;3908;52.310;7.230;2022-12-18T05:34:12;28.00;;;15.03;;
7729;SDS011;3908;52.310;7.230;2022-12-18T05:36:59;29.70;;;14.47;;
7729;SDS011;3908;52.310;7.230;2022-12-18T05:39:46;25.63;;;14.53;;
7729;SDS011;3908;52.310;7.230;2022-12-18T05:42:33;33.63;;;15.43;;
7729;SDS011;3908;52.310;7.230;2022-12-18T05:45:20;30.33;;;14.93;;
7729;SDS011;3908;52.310;7.230;2022-12-18T05:48:07;31.27;;;15.37;;
7729;SDS011;3908;52.310;7.230;2022-12-18T05:51:04;26.50;;;13.60;;
7729;SDS011;3908;52.310;7.230;2022-12-18T05:53:53;27.63;;;14.30;;
7729;SDS011;3908;52.310;7.230;2022-12-18T05:56:40;28.20;;;13.57;;
7729;SDS011;3908;52.310;7.230;2022-12-18T05:59:28;28.43;;;13.60;;
7729;SDS011;3908;52.310;7.230;2022-12-18T06:02:15;27.07;;;14.27;;
7729;SDS011;3908;52.310;7.230;2022-12-18T06:05:01;33.97;;;15.50;;
7729;SDS011;3908;52.310;7.230;2022-12-18T06:07:50;28.20;;;13.87;;
7729;SDS011;3908;52.310;7.230;2022-12-18T06:10:38;21.30;;;13.33;;
7729;SDS011;3908;52.310;7.230;2022-12-18T06:13:26;27.80;;;14.63;;
7729;SDS011;3908;52.310;7.230;2022-12-18T06:16:13;30.87;;;15.33;;
7729;SDS011;3908;52.310;7.230;2022-12-18T06:19:00;28.33;;;13.43;;
7729;SDS011;3908;52.310;7.230;2022-12-18T06:21:49;26.27;;;12.17;;
7729;SDS011;3908;52.310;7.230;2022-12-18T06:24:38;34.27;;;15.07;;
7729;SDS011;3908;52.310;7.230;2022-12-18T06:27:25;26.23;;;12.43;;
7729;SDS011;3908;52.310;7.230;2022-12-18T06:30:12;22.27;;;12.00;;
7729;SDS011;3908;52.310;7.230;2022-12-18T06:33:01;25.83;;;13.60;;
7729;SDS011;3908;52.310;7.230;2022-12-18T06:35:48;25.83;;;13.23;;
7729;SDS011;3908;52.310;7.230;2022-12-18T06:38:36;25.90;;;13.80;;
7729;SDS011;3908;52.310;7.230;2022-12-18T06:41:27;26.17;;;12.67;;
7729;SDS011;3908;52.310;7.230;2022-12-18T06:44:13;24.90;;;12.70;;
7729;SDS011;3908;52.310;7.230;2022-12-18T06:47:00;31.87;;;14.30;;
7729;SDS011;3908;52.310;7.230;2022-12-18T06:49:47;25.70;;;12.70;;
7729;SDS011;3908;52.310;7.230;2022-12-18T06:52:36;23.67;;;13.03;;
7729;SDS011;3908;52.310;7.230;2022-12-18T06:55:24;28.23;;;12.20;;
7729;SDS011;3908;52.310;7.230;2022-12-18T06:58:13;27.33;;;12.50;;
7729;SDS011;3908;52.310;7.230;2022-12-18T07:01:00;24.03;;;13.67;;
7729;SDS011;3908;52.310;7.230;2022-12-18T07:03:51;22.67;;;12.37;;
7729;SDS011;3908;52.310;7.230;2022-12-18T07:06:39;25.00;;;11.23;;
7729;SDS011;3908;52.310;7.230;2022-12-18T07:09:26;26.20;;;12.50;;
7729;SDS011;3908;52.310;7.230;2022-12-18T07:12:13;21.83;;;12.03;;
7729;SDS011;3908;52.310;7.230;2022-12-18T07:15:02;23.10;;;11.83;;
7729;SDS011;3908;52.310;7.230;2022-12-18T07:17:50;33.30;;;13.10;;
7729;SDS011;3908;52.310;7.230;2022-12-18T07:20:37;25.00;;;11.23;;
7729;SDS011;3908;52.310;7.230;2022-12-18T07:23:24;24.63;;;12.47;;
7729;SDS011;3908;52.310;7.230;2022-12-18T07:26:12;24.37;;;12.57;;
7729;SDS011;3908;52.310;7.230;2022-12-18T07:29:00;24.37;;;11.83;;
7729;SDS011;3908;52.310;7.230;2022-12-18T07:31:49;24.83;;;12.33;;
7729;SDS011;3908;52.310;7.230;2022-12-18T07:34:37;18.53;;;11.23;;
7729;SDS011;3908;52.310;7.230;2022-12-18T07:37:24;24.20;;;12.20;;
7729;SDS011;3908;52.310;7.230;2022-12-18T07:40:11;22.17;;;10.83;;
7729;SDS011;3908;52.310;7.230;2022-12-18T07:42:58;21.30;;;10.57;;
7729;SDS011;3908;52.310;7.230;2022-12-18T07:45:48;20.10;;;10.87;;
7729;SDS011;3908;52.310;7.230;2022-12-18T07:48:37;19.07;;;10.50;;
7729;SDS011;3908;52.310;7.230;2022-12-18T07:51:24;16.87;;;9.33;;
7729;SDS011;3908;52.310;7.230;2022-12-18T07:54:11;18.87;;;10.30;;
7729;SDS011;3908;52.310;7.230;2022-12-18T07:56:58;17.00;;;10.40;;
7729;SDS011;3908;52.310;7.230;2022-12-18T07:59:46;20.93;;;11.73;;
7729;SDS011;3908;52.310;7.230;2022-12-18T08:02:34;26.80;;;11.23;;
7729;SDS011;3908;52.310;7.230;2022-12-18T08:05:22;19.77;;;9.60;;
7729;SDS011;3908;52.310;7.230;2022-12-18T08:08:09;19.13;;;10.80;;
7729;SDS011;3908;52.310;7.230;2022-12-18T08:10:56;19.13;;;9.77;;
7729;SDS011;3908;52.310;7.230;2022-12-18T08:13:43;20.67;;;10.87;;
7729;SDS011;3908;52.310;7.230;2022-12-18T08:16:30;17.87;;;9.37;;
7729;SDS011;3908;52.310;7.230;2022-12-18T08:19:18;19.37;;;10.60;;
7729;SDS011;3908;52.310;7.230;2022-12-18T08:22:07;19.80;;;9.93;;
7729;SDS011;3908;52.310;7.230;2022-12-18T08:24:54;22.77;;;10.57;;
7729;SDS011;3908;52.310;7.230;2022-12-18T08:27:41;18.87;;;10.70;;
7729;SDS011;3908;52.310;7.230;2022-12-18T08:30:28;18.93;;;10.47;;
7729;SDS011;3908;52.310;7.230;2022-12-18T08:33:15;18.73;;;9.83;;
7729;SDS011;3908;52.310;7.230;2022-12-18T08:36:03;15.07;;;8.67;;
7729;SDS011;3908;52.310;7.230;2022-12-18T08:38:53;19.43;;;9.73;;
7729;SDS011;3908;52.310;7.230;2022-12-18T08:41:40;18.37;;;9.60;;
7729;SDS011;3908;52.310;7.230;2022-12-18T08:44:27;19.17;;;10.13;;
7729;SDS011;3908;52.310;7.230;2022-12-18T08:47:28;13.87;;;8.00;;
7729;SDS011;3908;52.310;7.230;2022-12-18T08:50:15;14.63;;;8.53;;
7729;SDS011;3908;52.310;7.230;2022-12-18T08:53:02;14.73;;;9.27;;
7729;SDS011;3908;52.310;7.230;2022-12-18T08:55:51;15.63;;;8.50;;
7729;SDS011;3908;52.310;7.230;2022-12-18T08:58:38;15.43;;;8.23;;
7729;SDS011;3908;52.310;7.230;2022-12-18T09:01:29;15.60;;;8.90;;
7729;SDS011;3908;52.310;7.230;2022-12-18T09:04:16;14.93;;;7.80;;
7729;SDS011;3908;52.310;7.230;2022-12-18T09:07:03;14.43;;;8.70;;
7729;SDS011;3908;52.310;7.230;2022-12-18T09:09:50;15.77;;;8.00;;
7729;SDS011;3908;52.310;7.230;2022-12-18T09:12:38;13.97;;;7.90;;
7729;SDS011;3908;52.310;7.230;2022-12-18T09:15:25;13.43;;;8.53;;
7729;SDS011;3908;52.310;7.230;2022-12-18T09:18:16;12.07;;;7.60;;
7729;SDS011;3908;52.310;7.230;2022-12-18T09:21:09;13.77;;;8.43;;
7729;SDS011;3908;52.310;7.230;2022-12-18T09:23:57;14.40;;;8.40;;
7729;SDS011;3908;52.310;7.230;2022-12-18T09:26:44;12.17;;;7.97;;
7729;SDS011;3908;52.310;7.230;2022-12-18T09:29:33;11.17;;;7.63;;
7729;SDS011;3908;52.310;7.230;2022-12-18T09:32:24;10.17;;;7.70;;
7729;SDS011;3908;52.310;7.230;2022-12-18T09:35:11;12.80;;;8.27;;
7729;SDS011;3908;52.310;7.230;2022-12-18T09:37:58;10.87;;;7.30;;
7729;SDS011;3908;52.310;7.230;2022-12-18T09:40:46;14.17;;;7.73;;
7729;SDS011;3908;52.310;7.230;2022-12-18T09:43:36;17.13;;;7.70;;
7729;SDS011;3908;52.310;7.230;2022-12-18T09:46:30;13.23;;;8.37;;
7729;SDS011;3908;52.310;7.230;2022-12-18T09:49:22;15.47;;;6.93;;
7729;SDS011;3908;52.310;7.230;2022-12-18T09:52:15;14.67;;;8.40;;
7729;SDS011;3908;52.310;7.230;2022-12-18T09:55:09;11.57;;;7.00;;
7729;SDS011;3908;52.310;7.230;2022-12-18T09:58:14;9.73;;;6.53;;
7729;SDS011;3908;52.310;7.230;2022-12-18T10:01:09;11.50;;;6.57;;
7729;SDS011;3908;52.310;7.230;2022-12-18T10:03:58;11.47;;;6.70;;
7729;SDS011;3908;52.310;7.230;2022-12-18T10:06:48;10.63;;;7.20;;
7729;SDS011;3908;52.310;7.230;2022-12-18T10:09:41;14.83;;;7.17;;
7729;SDS011;3908;52.310;7.230;2022-12-18T10:12:37;10.23;;;6.53;;
7729;SDS011;3908;52.310;7.230;2022-12-18T10:15:33;12.13;;;6.50;;
7729;SDS011;3908;52.310;7.230;2022-12-18T10:18:31;12.07;;;6.00;;
7729;SDS011;3908;52.310;7.230;2022-12-18T10:21:34;9.90;;;6.40;;
7729;SDS011;3908;52.310;7.230;2022-12-18T10:24:27;10.87;;;5.70;;
7729;SDS011;3908;52.310;7.230;2022-12-18T10:27:25;9.17;;;5.67;;
7729;SDS011;3908;52.310;7.230;2022-12-18T10:30:14;13.20;;;5.80;;
7729;SDS011;3908;52.310;7.230;2022-12-18T10:33:03;13.97;;;5.87;;
7729;SDS011;3908;52.310;7.230;2022-12-18T10:35:51;8.93;;;5.63;;
7729;SDS011;3908;52.310;7.230;2022-12-18T10:38:40;10.10;;;6.33;;
7729;SDS011;3908;52.310;7.230;2022-12-18T10:41:27;9.83;;;6.20;;
7729;SDS011;3908;52.310;7.230;2022-12-18T10:44:17;9.50;;;6.30;;
7729;SDS011;3908;52.310;7.230;2022-12-18T10:47:11;11.07;;;6.17;;
7729;SDS011;3908;52.310;7.230;2022-12-18T10:50:01;10.20;;;6.20;;
7729;SDS011;3908;52.310;7.230;2022-12-18T10:52:53;7.40;;;5.43;;
7729;SDS011;3908;52.310;7.230;2022-12-18T10:55:44;10.60;;;6.00;;
7729;SDS011;3908;52.310;7.230;2022-12-18T10:58:36;11.63;;;6.50;;
7729;SDS011;3908;52.310;7.230;2022-12-18T11:01:24;9.87;;;6.37;;
7729;SDS011;3908;52.310;7.230;2022-12-18T11:04:13;10.33;;;5.53;;
7729;SDS011;3908;52.310;7.230;2022-12-18T11:07:05;10.70;;;6.20;;
7729;SDS011;3908;52.310;7.230;2022-12-18T11:09:59;11.43;;;6.43;;
7729;SDS011;3908;52.310;7.230;2022-12-18T11:12:51;10.60;;;5.97;;
7729;SDS011;3908;52.310;7.230;2022-12-18T11:15:39;10.53;;;6.03;;
7729;SDS011;3908;52.310;7.230;2022-12-18T11:18:28;10.23;;;6.60;;
7729;SDS011;3908;52.310;7.230;2022-12-18T11:21:17;10.30;;;5.70;;
7729;SDS011;3908;52.310;7.230;2022-12-18T11:24:05;10.97;;;5.53;;
7729;SDS011;3908;52.310;7.230;2022-12-18T11:27:04;10.27;;;6.00;;
7729;SDS011;3908;52.310;7.230;2022-12-18T11:30:06;10.37;;;6.30;;
7729;SDS011;3908;52.310;7.230;2022-12-18T11:32:56;8.47;;;5.57;;
7729;SDS011;3908;52.310;7.230;2022-12-18T11:35:47;9.33;;;5.90;;
7729;SDS011;3908;52.310;7.230;2022-12-18T11:38:39;8.73;;;5.30;;
7729;SDS011;3908;52.310;7.230;2022-12-18T11:41:29;10.07;;;6.37;;
7729;SDS011;3908;52.310;7.230;2022-12-18T11:44:41;9.63;;;6.67;;
7729;SDS011;3908;52.310;7.230;2022-12-18T11:47:37;10.20;;;5.83;;
7729;SDS011;3908;52.310;7.230;2022-12-18T11:50:31;12.30;;;6.80;;
7729;SDS011;3908;52.310;7.230;2022-12-18T11:53:26;9.90;;;6.73;;
7729;SDS011;3908;52.310;7.230;2022-12-18T11:56:21;10.33;;;6.87;;
7729;SDS011;3908;52.310;7.230;2022-12-18T11:59:18;9.97;;;6.13;;
7729;SDS011;3908;52.310;7.230;2022-12-18T12:02:24;11.37;;;6.10;;
7729;SDS011;3908;52.310;7.230;2022-12-18T12:05:28;13.53;;;7.07;;
7729;SDS011;3908;52.310;7.230;2022-12-18T12:08:29;9.40;;;6.20;;
7729;SDS011;3908;52.310;7.230;2022-12-18T12:11:23;11.80;;;7.03;;
7729;SDS011;3908;52.310;7.230;2022-12-18T12:14:24;11.37;;;6.30;;
7729;SDS011;3908;52.310;7.230;2022-12-18T12:17:25;10.47;;;6.37;;
7729;SDS011;3908;52.310;7.230;2022-12-18T12:20:24;8.77;;;5.90;;
7729;SDS011;3908;52.310;7.230;2022-12-18T12:23:22;10.30;;;5.90;;
7729;SDS011;3908;52.310;7.230;2022-12-18T12:26:16;8.17;;;5.57;;
7729;SDS011;3908;52.310;7.230;2022-12-18T12:29:22;10.10;;;6.73;;
7729;SDS011;3908;52.310;7.230;2022-12-18T12:32:25;13.13;;;7.23;;
7729;SDS011;3908;52.310;7.230;2022-12-18T12:35:29;9.73;;;4.90;;
7729;SDS011;3908;52.310;7.230;2022-12-18T12:38:30;6.87;;;5.00;;
7729;SDS011;3908;52.310;7.230;2022-12-18T12:41:22;10.57;;;5.70;;
7729;SDS011;3908;52.310;7.230;2022-12-18T12:44:34;11.43;;;5.80;;
7729;SDS011;3908;52.310;7.230;2022-12-18T12:47:30;8.40;;;5.63;;
7729;SDS011;3908;52.310;7.230;2022-12-18T12:50:20;10.53;;;5.90;;
7729;SDS011;3908;52.310;7.230;2022-12-18T12:53:14;10.23;;;5.03;;
7729;SDS011;3908;52.310;7.230;2022-12-18T12:56:09;10.60;;;6.00;;
7729;SDS011;3908;52.310;7.230;2022-12-18T12:58:59;9.10;;;5.27;;
7729;SDS011;3908;52.310;7.230;2022-12-18T13:01:57;10.60;;;5.73;;
7729;SDS011;3908;52.310;7.230;2022-12-18T13:04:49;8.70;;;6.10;;
7729;SDS011;3908;52.310;7.230;2022-12-18T13:07:45;10.90;;;5.87;;
7729;SDS011;3908;52.310;7.230;2022-12-18T13:10:40;9.07;;;5.27;;
7729;SDS011;3908;52.310;7.230;2022-12-18T13:13:29;9.73;;;5.57;;
7729;SDS011;3908;52.310;7.230;2022-12-18T13:16:34;13.37;;;5.37;;
7729;SDS011;3908;52.310;7.230;2022-12-18T13:19:23;11.60;;;6.03;;
7729;SDS011;3908;52.310;7.230;2022-12-18T13:22:20;9.40;;;5.80;;
7729;SDS011;3908;52.310;7.230;2022-12-18T13:25:29;11.40;;;5.47;;
7729;SDS011;3908;52.310;7.230;2022-12-18T13:28:21;9.90;;;5.67;;
7729;SDS011;3908;52.310;7.230;2022-12-18T13:31:13;7.27;;;5.43;;
7729;SDS011;3908;52.310;7.230;2022-12-18T13:34:21;7.77;;;4.90;;
7729;SDS011;3908;52.310;7.230;2022-12-18T13:43:43;8.37;;;4.90;;
7729;SDS011;3908;52.310;7.230;2022-12-18T13:46:42;9.47;;;5.90;;
7729;SDS011;3908;52.310;7.230;2022-12-18T13:49:31;10.67;;;6.13;;
7729;SDS011;3908;52.310;7.230;2022-12-18T13:52:25;10.17;;;6.50;;
7729;SDS011;3908;52.310;7.230;2022-12-18T13:55:15;8.27;;;5.27;;
7729;SDS011;3908;52.310;7.230;2022-12-18T13:58:04;10.00;;;5.90;;
7729;SDS011;3908;52.310;7.230;2022-12-18T14:00:53;10.90;;;5.40;;
7729;SDS011;3908;52.310;7.230;2022-12-18T14:03:41;9.43;;;6.20;;
7729;SDS011;3908;52.310;7.230;2022-12-18T14:06:28;10.13;;;6.07;;
7729;SDS011;3908;52.310;7.230;2022-12-18T14:09:16;11.40;;;5.63;;
7729;SDS011;3908;52.310;7.230;2022-12-18T14:12:14;9.47;;;5.10;;
7729;SDS011;3908;52.310;7.230;2022-12-18T14:15:22;9.47;;;5.70;;
7729;SDS011;3908;52.310;7.230;2022-12-18T14:18:20;10.93;;;5.63;;
7729;SDS011;3908;52.310;7.230;2022-12-18T14:21:16;6.60;;;5.40;;
7729;SDS011;3908;52.310;7.230;2022-12-18T14:24:12;9.17;;;6.30;;
7729;SDS011;3908;52.310;7.230;2022-12-18T14:27:11;8.23;;;5.80;;
7729;SDS011;3908;52.310;7.230;2022-12-18T14:30:18;8.17;;;5.80;;
7729;SDS011;3908;52.310;7.230;2022-12-18T14:33:16;9.90;;;5.77;;
7729;SDS011;3908;52.310;7.230;2022-12-18T14:36:13;8.77;;;5.17;;
7729;SDS011;3908;52.310;7.230;2022-12-18T14:39:03;10.63;;;6.10;;
7729;SDS011;3908;52.310;7.230;2022-12-18T14:41:50;13.60;;;7.10;;
7729;SDS011;3908;52.310;7.230;2022-12-18T14:44:38;10.03;;;6.00;;
7729;SDS011;3908;52.310;7.230;2022-12-18T14:47:24;7.97;;;4.90;;
7729;SDS011;3908;52.310;7.230;2022-12-18T14:50:12;8.07;;;5.10;;
7729;SDS011;3908;52.310;7.230;2022-12-18T14:53:02;11.63;;;6.03;;
7729;SDS011;3908;52.310;7.230;2022-12-18T14:55:55;10.23;;;6.10;;
7729;SDS011;3908;52.310;7.230;2022-12-18T14:58:46;9.37;;;5.37;;
7729;SDS011;3908;52.310;7.230;2022-12-18T15:01:35;8.43;;;5.37;;
7729;SDS011;3908;52.310;7.230;2022-12-18T15:04:25;8.63;;;5.97;;
7729;SDS011;3908;52.310;7.230;2022-12-18T15:07:14;9.40;;;6.00;;
7729;SDS011;3908;52.310;7.230;2022-12-18T15:10:10;11.80;;;6.53;;
7729;SDS011;3908;52.310;7.230;2022-12-18T15:13:07;9.00;;;5.20;;
7729;SDS011;3908;52.310;7.230;2022-12-18T15:15:56;10.60;;;6.10;;
7729;SDS011;3908;52.310;7.230;2022-12-18T15:18:48;8.97;;;5.40;;
7729;SDS011;3908;52.310;7.230;2022-12-18T15:21:35;8.47;;;5.17;;
7729;SDS011;3908;52.310;7.230;2022-12-18T15:24:23;7.90;;;4.90;;
7729;SDS011;3908;52.310;7.230;2022-12-18T15:27:29;8.23;;;5.33;;
7729;SDS011;3908;52.310;7.230;2022-12-18T15:30:19;8.07;;;5.33;;
7729;SDS011;3908;52.310;7.230;2022-12-18T15:33:22;11.83;;;5.73;;
7729;SDS011;3908;52.310;7.230;2022-12-18T15:36:12;8.80;;;6.13;;
7729;SDS011;3908;52.310;7.230;2022-12-18T15:39:01;7.37;;;5.20;;
7729;SDS011;3908;52.310;7.230;2022-12-18T15:41:49;9.67;;;5.10;;
7729;SDS011;3908;52.310;7.230;2022-12-18T15:45:10;8.10;;;4.50;;
7729;SDS011;3908;52.310;7.230;2022-12-18T15:47:58;7.13;;;4.60;;
7729;SDS011;3908;52.310;7.230;2022-12-18T15:50:53;6.20;;;4.23;;
7729;SDS011;3908;52.310;7.230;2022-12-18T15:53:42;7.00;;;5.00;;
7729;SDS011;3908;52.310;7.230;2022-12-18T15:56:31;8.17;;;4.83;;
7729;SDS011;3908;52.310;7.230;2022-12-18T15:59:36;8.23;;;5.30;;
7729;SDS011;3908;52.310;7.230;2022-12-18T16:02:24;7.83;;;5.33;;
7729;SDS011;3908;52.310;7.230;2022-12-18T16:05:13;7.77;;;5.70;;
7729;SDS011;3908;52.310;7.230;2022-12-18T16:08:04;7.37;;;5.17;;
7729;SDS011;3908;52.310;7.230;2022-12-18T16:10:51;7.57;;;5.20;;
7729;SDS011;3908;52.310;7.230;2022-12-18T16:13:38;8.13;;;5.60;;
7729;SDS011;3908;52.310;7.230;2022-12-18T16:16:25;10.13;;;5.67;;
7729;SDS011;3908;52.310;7.230;2022-12-18T16:19:13;9.40;;;5.07;;
7729;SDS011;3908;52.310;7.230;2022-12-18T16:22:02;9.10;;;5.50;;
7729;SDS011;3908;52.310;7.230;2022-12-18T16:24:50;7.83;;;5.30;;
7729;SDS011;3908;52.310;7.230;2022-12-18T16:27:38;9.73;;;5.43;;
7729;SDS011;3908;52.310;7.230;2022-12-18T16:30:26;12.73;;;5.50;;
7729;SDS011;3908;52.310;7.230;2022-12-18T16:33:16;8.50;;;5.43;;
7729;SDS011;3908;52.310;7.230;2022-12-18T16:36:04;7.00;;;5.43;;
7729;SDS011;3908;52.310;7.230;2022-12-18T16:38:53;6.63;;;5.07;;
7729;SDS011;3908;52.310;7.230;2022-12-18T16:41:40;7.43;;;4.67;;
7729;SDS011;3908;52.310;7.230;2022-12-18T16:44:27;9.83;;;5.77;;
7729;SDS011;3908;52.310;7.230;2022-12-18T16:47:15;6.63;;;4.90;;
7729;SDS011;3908;52.310;7.230;2022-12-18T16:50:02;7.80;;;5.23;;
7729;SDS011;3908;52.310;7.230;2022-12-18T16:52:51;8.53;;;5.50;;
7729;SDS011;3908;52.310;7.230;2022-12-18T16:55:38;7.23;;;5.27;;
7729;SDS011;3908;52.310;7.230;2022-12-18T16:58:25;8.57;;;5.40;;
7729;SDS011;3908;52.310;7.230;2022-12-18T17:01:14;8.63;;;5.20;;
7729;SDS011;3908;52.310;7.230;2022-12-18T17:04:02;6.83;;;5.03;;
7729;SDS011;3908;52.310;7.230;2022-12-18T17:06:50;8.03;;;5.37;;
7729;SDS011;3908;52.310;7.230;2022-12-18T17:09:39;8.87;;;4.70;;
7729;SDS011;3908;52.310;7.230;2022-12-18T17:12:27;6.73;;;5.13;;
7729;SDS011;3908;52.310;7.230;2022-12-18T17:15:14;7.70;;;4.93;;
7729;SDS011;3908;52.310;7.230;2022-12-18T17:18:02;13.47;;;5.97;;
7729;SDS011;3908;52.310;7.230;2022-12-18T17:20:49;12.03;;;5.80;;
7729;SDS011;3908;52.310;7.230;2022-12-18T17:23:36;8.97;;;5.70;;
7729;SDS011;3908;52.310;7.230;2022-12-18T17:26:24;9.77;;;5.17;;
7729;SDS011;3908;52.310;7.230;2022-12-18T17:29:12;11.07;;;5.33;;